sensor_id;sensor_type;location;lat;lon;timestamp;P1;durP1;ratioP1;P2;durP2;ratioP2
45252;SDS011;63171;50.520;30.486;2022-11-15T00:00:06;15.70;;;10.07;;
45252;SDS011;63171;50.520;30.486;2022-11-15T00:02:26;12.50;;;11.30;;
45252;SDS011;63171;50.520;30.486;2022-11-15T00:03:35;12.77;;;10.35;;
45252;SDS011;63171;50.520;30.486;2022-11-15T00:04:45;11.98;;;9.77;;
45252;SDS011;63171;50.520;30.486;2022-11-15T00:05:53;19.52;;;10.85;;
45252;SDS011;63171;50.520;30.486;2022-11-15T00:07:03;12.10;;;10.90;;
45252;SDS011;63171;50.520;30.486;2022-11-15T00:08:13;16.88;;;11.27;;
45252;SDS011;63171;50.520;30.486;2022-11-15T00:09:23;13.90;;;10.07;;
45252;SDS011;63171;50.520;30.486;2022-11-15T00:10:32;10.55;;;9.00;;
45252;SDS011;63171;50.520;30.486;2022-11-15T00:11:42;10.55;;;9.45;;
45252;SDS011;63171;50.520;30.486;2022-11-15T00:12:51;10.85;;;9.57;;
45252;SDS011;63171;50.520;30.486;2022-11-15T00:14:01;11.50;;;9.52;;
45252;SDS011;63171;50.520;30.486;2022-11-15T00:15:11;11.90;;;9.65;;
45252;SDS011;63171;50.520;30.486;2022-11-15T00:16:20;11.75;;;8.88;;
45252;SDS011;63171;50.520;30.486;2022-11-15T00:17:29;13.07;;;9.90;;
45252;SDS011;63171;50.520;30.486;2022-11-15T00:18:39;16.98;;;9.93;;
45252;SDS011;63171;50.520;30.486;2022-11-15T00:19:48;17.65;;;9.65;;
45252;SDS011;63171;50.520;30.486;2022-11-15T00:21:02;16.00;;;10.40;;
45252;SDS011;63171;50.520;30.486;2022-11-15T00:22:13;11.82;;;8.63;;
45252;SDS011;63171;50.520;30.486;2022-11-15T00:23:24;10.57;;;8.90;;
45252;SDS011;63171;50.520;30.486;2022-11-15T00:24:33;10.38;;;7.65;;
45252;SDS011;63171;50.520;30.486;2022-11-15T00:25:43;11.27;;;8.60;;
45252;SDS011;63171;50.520;30.486;2022-11-15T00:26:51;10.15;;;8.05;;
45252;SDS011;63171;50.520;30.486;2022-11-15T00:28:01;9.68;;;8.23;;
45252;SDS011;63171;50.520;30.486;2022-11-15T00:29:10;10.98;;;8.88;;
45252;SDS011;63171;50.520;30.486;2022-11-15T00:30:20;13.32;;;7.93;;
45252;SDS011;63171;50.520;30.486;2022-11-15T00:31:29;15.40;;;9.00;;
45252;SDS011;63171;50.520;30.486;2022-11-15T00:32:39;9.35;;;8.20;;
45252;SDS011;63171;50.520;30.486;2022-11-15T00:33:48;12.63;;;9.82;;
45252;SDS011;63171;50.520;30.486;2022-11-15T00:34:57;12.20;;;9.60;;
45252;SDS011;63171;50.520;30.486;2022-11-15T00:36:07;14.20;;;9.23;;
45252;SDS011;63171;50.520;30.486;2022-11-15T00:37:18;12.85;;;8.90;;
45252;SDS011;63171;50.520;30.486;2022-11-15T00:38:31;11.20;;;8.63;;
45252;SDS011;63171;50.520;30.486;2022-11-15T00:39:41;12.27;;;9.43;;
45252;SDS011;63171;50.520;30.486;2022-11-15T00:40:50;15.80;;;9.77;;
45252;SDS011;63171;50.520;30.486;2022-11-15T00:42:00;19.23;;;11.10;;
45252;SDS011;63171;50.520;30.486;2022-11-15T00:43:09;12.93;;;11.18;;
45252;SDS011;63171;50.520;30.486;2022-11-15T00:44:18;18.67;;;11.57;;
45252;SDS011;63171;50.520;30.486;2022-11-15T00:45:28;19.35;;;11.35;;
45252;SDS011;63171;50.520;30.486;2022-11-15T00:46:36;15.32;;;10.02;;
45252;SDS011;63171;50.520;30.486;2022-11-15T00:47:46;14.88;;;9.00;;
45252;SDS011;63171;50.520;30.486;2022-11-15T00:48:55;13.55;;;9.85;;
45252;SDS011;63171;50.520;30.486;2022-11-15T00:50:05;15.60;;;11.27;;
45252;SDS011;63171;50.520;30.486;2022-11-15T00:51:15;14.13;;;10.25;;
45252;SDS011;63171;50.520;30.486;2022-11-15T00:52:24;15.77;;;10.88;;
45252;SDS011;63171;50.520;30.486;2022-11-15T00:53:35;17.00;;;10.80;;
45252;SDS011;63171;50.520;30.486;2022-11-15T00:54:45;15.27;;;9.38;;
45252;SDS011;63171;50.520;30.486;2022-11-15T00:55:54;13.93;;;9.93;;
45252;SDS011;63171;50.520;30.486;2022-11-15T00:57:03;14.10;;;10.52;;
45252;SDS011;63171;50.520;30.486;2022-11-15T00:58:13;13.13;;;9.38;;
45252;SDS011;63171;50.520;30.486;2022-11-15T00:59:22;12.13;;;9.35;;
45252;SDS011;63171;50.520;30.486;2022-11-15T01:00:32;11.68;;;10.55;;
45252;SDS011;63171;50.520;30.486;2022-11-15T01:03:42;16.17;;;10.27;;
45252;SDS011;63171;50.520;30.486;2022-11-15T01:04:52;16.35;;;9.73;;
45252;SDS011;63171;50.520;30.486;2022-11-15T01:06:02;20.83;;;9.60;;
45252;SDS011;63171;50.520;30.486;2022-11-15T01:07:11;13.57;;;10.52;;
45252;SDS011;63171;50.520;30.486;2022-11-15T01:08:21;13.70;;;8.57;;
45252;SDS011;63171;50.520;30.486;2022-11-15T01:09:31;14.60;;;8.57;;
45252;SDS011;63171;50.520;30.486;2022-11-15T01:10:41;11.77;;;9.10;;
45252;SDS011;63171;50.520;30.486;2022-11-15T01:11:50;14.60;;;9.20;;
45252;SDS011;63171;50.520;30.486;2022-11-15T01:13:00;13.63;;;9.32;;
45252;SDS011;63171;50.520;30.486;2022-11-15T01:14:10;9.25;;;8.25;;
45252;SDS011;63171;50.520;30.486;2022-11-15T01:15:20;14.75;;;7.72;;
45252;SDS011;63171;50.520;30.486;2022-11-15T01:16:28;12.93;;;8.48;;
45252;SDS011;63171;50.520;30.486;2022-11-15T01:17:38;13.07;;;9.27;;
45252;SDS011;63171;50.520;30.486;2022-11-15T01:18:47;11.88;;;8.63;;
45252;SDS011;63171;50.520;30.486;2022-11-15T01:19:57;13.98;;;8.50;;
45252;SDS011;63171;50.520;30.486;2022-11-15T01:21:07;15.07;;;8.82;;
45252;SDS011;63171;50.520;30.486;2022-11-15T01:22:18;11.63;;;9.23;;
45252;SDS011;63171;50.520;30.486;2022-11-15T01:23:27;12.68;;;10.48;;
45252;SDS011;63171;50.520;30.486;2022-11-15T01:24:38;16.80;;;9.82;;
45252;SDS011;63171;50.520;30.486;2022-11-15T01:25:48;14.60;;;10.07;;
45252;SDS011;63171;50.520;30.486;2022-11-15T01:26:57;14.88;;;9.60;;
45252;SDS011;63171;50.520;30.486;2022-11-15T01:28:07;15.38;;;9.30;;
45252;SDS011;63171;50.520;30.486;2022-11-15T01:29:16;12.15;;;8.75;;
45252;SDS011;63171;50.520;30.486;2022-11-15T01:30:26;14.70;;;8.75;;
45252;SDS011;63171;50.520;30.486;2022-11-15T01:31:35;15.00;;;9.60;;
45252;SDS011;63171;50.520;30.486;2022-11-15T01:32:44;18.45;;;10.70;;
45252;SDS011;63171;50.520;30.486;2022-11-15T01:33:53;12.48;;;9.02;;
45252;SDS011;63171;50.520;30.486;2022-11-15T01:35:03;15.23;;;9.25;;
45252;SDS011;63171;50.520;30.486;2022-11-15T01:36:13;10.85;;;7.47;;
45252;SDS011;63171;50.520;30.486;2022-11-15T01:37:25;9.32;;;7.55;;
45252;SDS011;63171;50.520;30.486;2022-11-15T01:38:34;9.50;;;8.50;;
45252;SDS011;63171;50.520;30.486;2022-11-15T01:39:45;8.27;;;7.20;;
45252;SDS011;63171;50.520;30.486;2022-11-15T01:42:04;12.82;;;6.50;;
45252;SDS011;63171;50.520;30.486;2022-11-15T01:43:20;8.35;;;6.97;;
45252;SDS011;63171;50.520;30.486;2022-11-15T01:44:38;10.75;;;7.15;;
45252;SDS011;63171;50.520;30.486;2022-11-15T01:45:49;9.57;;;6.97;;
45252;SDS011;63171;50.520;30.486;2022-11-15T01:47:03;8.68;;;7.40;;
45252;SDS011;63171;50.520;30.486;2022-11-15T01:48:15;10.27;;;8.07;;
45252;SDS011;63171;50.520;30.486;2022-11-15T01:49:24;12.25;;;8.02;;
45252;SDS011;63171;50.520;30.486;2022-11-15T01:50:36;9.23;;;7.35;;
45252;SDS011;63171;50.520;30.486;2022-11-15T01:51:45;8.60;;;6.75;;
45252;SDS011;63171;50.520;30.486;2022-11-15T01:52:55;9.23;;;7.70;;
45252;SDS011;63171;50.520;30.486;2022-11-15T01:54:06;8.52;;;6.35;;
45252;SDS011;63171;50.520;30.486;2022-11-15T01:55:20;8.85;;;6.80;;
45252;SDS011;63171;50.520;30.486;2022-11-15T01:56:33;7.55;;;5.50;;
45252;SDS011;63171;50.520;30.486;2022-11-15T01:57:47;10.77;;;6.18;;
45252;SDS011;63171;50.520;30.486;2022-11-15T01:59:00;6.75;;;5.72;;
45252;SDS011;63171;50.520;30.486;2022-11-15T02:00:13;7.40;;;5.75;;
45252;SDS011;63171;50.520;30.486;2022-11-15T02:01:24;8.65;;;5.40;;
45252;SDS011;63171;50.520;30.486;2022-11-15T02:02:34;6.95;;;6.25;;
45252;SDS011;63171;50.520;30.486;2022-11-15T02:03:48;7.22;;;6.40;;
45252;SDS011;63171;50.520;30.486;2022-11-15T02:04:59;6.38;;;5.78;;
45252;SDS011;63171;50.520;30.486;2022-11-15T02:06:09;8.20;;;5.47;;
45252;SDS011;63171;50.520;30.486;2022-11-15T02:07:19;9.85;;;5.55;;
45252;SDS011;63171;50.520;30.486;2022-11-15T02:08:31;7.35;;;5.68;;
45252;SDS011;63171;50.520;30.486;2022-11-15T02:09:40;10.73;;;5.63;;
45252;SDS011;63171;50.520;30.486;2022-11-15T02:10:52;12.20;;;6.97;;
45252;SDS011;63171;50.520;30.486;2022-11-15T02:12:01;6.82;;;5.60;;
45252;SDS011;63171;50.520;30.486;2022-11-15T02:13:11;8.57;;;5.85;;
45252;SDS011;63171;50.520;30.486;2022-11-15T02:14:19;5.60;;;5.00;;
45252;SDS011;63171;50.520;30.486;2022-11-15T02:15:31;6.05;;;5.35;;
45252;SDS011;63171;50.520;30.486;2022-11-15T02:16:48;5.30;;;4.80;;
45252;SDS011;63171;50.520;30.486;2022-11-15T02:19:29;5.53;;;4.85;;
45252;SDS011;63171;50.520;30.486;2022-11-15T02:21:03;5.20;;;4.60;;
45252;SDS011;63171;50.520;30.486;2022-11-15T02:22:24;6.97;;;5.30;;
45252;SDS011;63171;50.520;30.486;2022-11-15T02:24:07;6.38;;;5.35;;
45252;SDS011;63171;50.520;30.486;2022-11-15T02:25:37;7.20;;;4.70;;
45252;SDS011;63171;50.520;30.486;2022-11-15T02:27:04;6.28;;;5.22;;
45252;SDS011;63171;50.520;30.486;2022-11-15T02:28:48;10.05;;;5.72;;
45252;SDS011;63171;50.520;30.486;2022-11-15T02:30:25;12.73;;;6.15;;
45252;SDS011;63171;50.520;30.486;2022-11-15T02:31:44;8.60;;;5.72;;
45252;SDS011;63171;50.520;30.486;2022-11-15T02:33:00;4.55;;;4.15;;
45252;SDS011;63171;50.520;30.486;2022-11-15T02:34:18;7.75;;;6.00;;
45252;SDS011;63171;50.520;30.486;2022-11-15T02:35:35;7.22;;;5.28;;
45252;SDS011;63171;50.520;30.486;2022-11-15T02:36:54;7.10;;;5.45;;
45252;SDS011;63171;50.520;30.486;2022-11-15T02:38:12;8.18;;;5.13;;
45252;SDS011;63171;50.520;30.486;2022-11-15T02:39:33;8.15;;;5.03;;
45252;SDS011;63171;50.520;30.486;2022-11-15T02:40:50;7.93;;;5.40;;
45252;SDS011;63171;50.520;30.486;2022-11-15T02:42:04;7.20;;;5.57;;
45252;SDS011;63171;50.520;30.486;2022-11-15T02:43:37;7.75;;;6.07;;
45252;SDS011;63171;50.520;30.486;2022-11-15T02:45:07;6.22;;;4.93;;
45252;SDS011;63171;50.520;30.486;2022-11-15T02:46:22;7.28;;;5.72;;
45252;SDS011;63171;50.520;30.486;2022-11-15T02:47:56;9.77;;;4.93;;
45252;SDS011;63171;50.520;30.486;2022-11-15T02:49:09;5.50;;;4.90;;
45252;SDS011;63171;50.520;30.486;2022-11-15T02:50:20;6.53;;;5.20;;
45252;SDS011;63171;50.520;30.486;2022-11-15T02:51:33;12.35;;;6.07;;
45252;SDS011;63171;50.520;30.486;2022-11-15T02:52:44;6.75;;;5.60;;
45252;SDS011;63171;50.520;30.486;2022-11-15T02:53:54;6.43;;;5.60;;
45252;SDS011;63171;50.520;30.486;2022-11-15T02:55:04;5.60;;;4.90;;
45252;SDS011;63171;50.520;30.486;2022-11-15T02:56:14;8.63;;;6.88;;
45252;SDS011;63171;50.520;30.486;2022-11-15T02:57:26;7.03;;;4.70;;
45252;SDS011;63171;50.520;30.486;2022-11-15T03:00:20;6.38;;;5.65;;
45252;SDS011;63171;50.520;30.486;2022-11-15T03:01:36;9.00;;;6.13;;
45252;SDS011;63171;50.520;30.486;2022-11-15T03:03:04;7.53;;;5.70;;
45252;SDS011;63171;50.520;30.486;2022-11-15T03:04:29;6.43;;;5.00;;
45252;SDS011;63171;50.520;30.486;2022-11-15T03:05:47;8.23;;;5.50;;
45252;SDS011;63171;50.520;30.486;2022-11-15T03:07:05;9.27;;;6.63;;
45252;SDS011;63171;50.520;30.486;2022-11-15T03:08:21;6.88;;;6.18;;
45252;SDS011;63171;50.520;30.486;2022-11-15T03:09:39;8.02;;;6.45;;
45252;SDS011;63171;50.520;30.486;2022-11-15T03:10:56;10.93;;;6.95;;
45252;SDS011;63171;50.520;30.486;2022-11-15T03:12:14;9.68;;;7.50;;
45252;SDS011;63171;50.520;30.486;2022-11-15T03:13:32;8.32;;;6.07;;
45252;SDS011;63171;50.520;30.486;2022-11-15T03:14:48;6.90;;;6.20;;
45252;SDS011;63171;50.520;30.486;2022-11-15T03:16:03;12.25;;;7.03;;
45252;SDS011;63171;50.520;30.486;2022-11-15T03:17:18;9.00;;;7.28;;
45252;SDS011;63171;50.520;30.486;2022-11-15T03:18:33;8.75;;;7.82;;
45252;SDS011;63171;50.520;30.486;2022-11-15T03:19:46;12.32;;;7.88;;
45252;SDS011;63171;50.520;30.486;2022-11-15T03:20:58;7.85;;;7.07;;
45252;SDS011;63171;50.520;30.486;2022-11-15T03:22:11;8.30;;;7.28;;
45252;SDS011;63171;50.520;30.486;2022-11-15T03:23:24;9.65;;;7.68;;
45252;SDS011;63171;50.520;30.486;2022-11-15T03:24:37;10.07;;;7.35;;
45252;SDS011;63171;50.520;30.486;2022-11-15T03:25:48;10.73;;;7.53;;
45252;SDS011;63171;50.520;30.486;2022-11-15T03:27:01;9.23;;;7.32;;
45252;SDS011;63171;50.520;30.486;2022-11-15T03:28:14;9.95;;;8.32;;
45252;SDS011;63171;50.520;30.486;2022-11-15T03:29:27;10.52;;;7.70;;
45252;SDS011;63171;50.520;30.486;2022-11-15T03:30:41;9.50;;;8.40;;
45252;SDS011;63171;50.520;30.486;2022-11-15T03:31:54;12.07;;;8.00;;
45252;SDS011;63171;50.520;30.486;2022-11-15T03:33:10;9.50;;;6.88;;
45252;SDS011;63171;50.520;30.486;2022-11-15T03:34:22;9.00;;;7.78;;
45252;SDS011;63171;50.520;30.486;2022-11-15T03:35:37;8.38;;;7.00;;
45252;SDS011;63171;50.520;30.486;2022-11-15T03:36:50;10.27;;;7.20;;
45252;SDS011;63171;50.520;30.486;2022-11-15T03:38:00;15.82;;;8.55;;
45252;SDS011;63171;50.520;30.486;2022-11-15T03:39:18;10.10;;;7.90;;
45252;SDS011;63171;50.520;30.486;2022-11-15T03:40:29;8.40;;;7.20;;
45252;SDS011;63171;50.520;30.486;2022-11-15T03:41:46;11.50;;;7.07;;
45252;SDS011;63171;50.520;30.486;2022-11-15T03:42:59;10.57;;;7.85;;
45252;SDS011;63171;50.520;30.486;2022-11-15T03:44:14;9.43;;;8.00;;
45252;SDS011;63171;50.520;30.486;2022-11-15T03:45:29;7.53;;;6.72;;
45252;SDS011;63171;50.520;30.486;2022-11-15T03:46:45;11.57;;;8.07;;
45252;SDS011;63171;50.520;30.486;2022-11-15T03:48:01;10.13;;;8.15;;
45252;SDS011;63171;50.520;30.486;2022-11-15T03:49:17;10.73;;;8.13;;
45252;SDS011;63171;50.520;30.486;2022-11-15T03:50:32;8.90;;;7.32;;
45252;SDS011;63171;50.520;30.486;2022-11-15T03:52:52;10.50;;;7.65;;
45252;SDS011;63171;50.520;30.486;2022-11-15T03:54:04;10.93;;;9.27;;
45252;SDS011;63171;50.520;30.486;2022-11-15T03:55:14;14.20;;;9.32;;
45252;SDS011;63171;50.520;30.486;2022-11-15T03:56:26;10.57;;;8.73;;
45252;SDS011;63171;50.520;30.486;2022-11-15T03:57:35;12.50;;;9.38;;
45252;SDS011;63171;50.520;30.486;2022-11-15T03:58:45;13.23;;;9.55;;
45252;SDS011;63171;50.520;30.486;2022-11-15T03:59:54;13.52;;;9.00;;
45252;SDS011;63171;50.520;30.486;2022-11-15T04:01:04;13.20;;;10.35;;
45252;SDS011;63171;50.520;30.486;2022-11-15T04:02:13;11.82;;;9.68;;
45252;SDS011;63171;50.520;30.486;2022-11-15T04:04:33;15.38;;;10.07;;
45252;SDS011;63171;50.520;30.486;2022-11-15T04:05:43;10.77;;;9.57;;
45252;SDS011;63171;50.520;30.486;2022-11-15T04:06:52;12.05;;;9.95;;
45252;SDS011;63171;50.520;30.486;2022-11-15T04:08:02;11.15;;;9.55;;
45252;SDS011;63171;50.520;30.486;2022-11-15T04:09:11;14.43;;;10.70;;
45252;SDS011;63171;50.520;30.486;2022-11-15T04:10:21;13.88;;;10.25;;
45252;SDS011;63171;50.520;30.486;2022-11-15T04:11:30;15.60;;;11.32;;
45252;SDS011;63171;50.520;30.486;2022-11-15T04:12:41;15.35;;;11.43;;
45252;SDS011;63171;50.520;30.486;2022-11-15T04:13:51;16.27;;;10.85;;
45252;SDS011;63171;50.520;30.486;2022-11-15T04:15:02;17.13;;;11.95;;
45252;SDS011;63171;50.520;30.486;2022-11-15T04:16:15;12.07;;;10.77;;
45252;SDS011;63171;50.520;30.486;2022-11-15T04:17:25;17.50;;;12.07;;
45252;SDS011;63171;50.520;30.486;2022-11-15T04:18:34;13.15;;;11.27;;
45252;SDS011;63171;50.520;30.486;2022-11-15T04:19:45;15.00;;;12.55;;
45252;SDS011;63171;50.520;30.486;2022-11-15T04:21:12;14.32;;;12.18;;
45252;SDS011;63171;50.520;30.486;2022-11-15T04:22:36;13.77;;;10.15;;
45252;SDS011;63171;50.520;30.486;2022-11-15T04:24:05;16.25;;;12.88;;
45252;SDS011;63171;50.520;30.486;2022-11-15T04:25:21;14.63;;;12.65;;
45252;SDS011;63171;50.520;30.486;2022-11-15T04:26:30;19.67;;;13.00;;
45252;SDS011;63171;50.520;30.486;2022-11-15T04:27:39;16.73;;;12.50;;
45252;SDS011;63171;50.520;30.486;2022-11-15T04:28:49;14.02;;;11.57;;
45252;SDS011;63171;50.520;30.486;2022-11-15T04:30:17;17.08;;;13.05;;
45252;SDS011;63171;50.520;30.486;2022-11-15T04:31:27;17.98;;;13.45;;
45252;SDS011;63171;50.520;30.486;2022-11-15T04:32:36;17.30;;;12.90;;
45252;SDS011;63171;50.520;30.486;2022-11-15T04:33:46;16.63;;;12.45;;
45252;SDS011;63171;50.520;30.486;2022-11-15T04:34:56;17.02;;;13.07;;
45252;SDS011;63171;50.520;30.486;2022-11-15T04:36:07;18.13;;;13.98;;
45252;SDS011;63171;50.520;30.486;2022-11-15T04:37:34;19.00;;;14.80;;
45252;SDS011;63171;50.520;30.486;2022-11-15T04:38:44;20.02;;;15.48;;
45252;SDS011;63171;50.520;30.486;2022-11-15T04:39:53;27.08;;;16.08;;
45252;SDS011;63171;50.520;30.486;2022-11-15T04:41:03;19.90;;;15.00;;
45252;SDS011;63171;50.520;30.486;2022-11-15T04:42:11;21.92;;;16.40;;
45252;SDS011;63171;50.520;30.486;2022-11-15T04:43:21;21.85;;;15.38;;
45252;SDS011;63171;50.520;30.486;2022-11-15T04:44:30;23.88;;;16.23;;
45252;SDS011;63171;50.520;30.486;2022-11-15T04:45:40;18.80;;;15.18;;
45252;SDS011;63171;50.520;30.486;2022-11-15T04:46:49;20.40;;;15.63;;
45252;SDS011;63171;50.520;30.486;2022-11-15T04:47:58;22.52;;;15.55;;
45252;SDS011;63171;50.520;30.486;2022-11-15T04:49:07;21.08;;;15.90;;
45252;SDS011;63171;50.520;30.486;2022-11-15T04:50:18;18.52;;;15.02;;
45252;SDS011;63171;50.520;30.486;2022-11-15T04:51:28;19.65;;;15.18;;
45252;SDS011;63171;50.520;30.486;2022-11-15T04:52:37;23.17;;;16.20;;
45252;SDS011;63171;50.520;30.486;2022-11-15T04:53:47;23.65;;;16.05;;
45252;SDS011;63171;50.520;30.486;2022-11-15T04:54:55;22.45;;;15.82;;
45252;SDS011;63171;50.520;30.486;2022-11-15T04:56:05;22.95;;;16.73;;
45252;SDS011;63171;50.520;30.486;2022-11-15T04:57:14;28.55;;;18.27;;
45252;SDS011;63171;50.520;30.486;2022-11-15T04:58:24;25.65;;;16.20;;
45252;SDS011;63171;50.520;30.486;2022-11-15T04:59:34;26.15;;;17.38;;
45252;SDS011;63171;50.520;30.486;2022-11-15T05:00:43;21.40;;;15.48;;
45252;SDS011;63171;50.520;30.486;2022-11-15T05:01:53;24.90;;;15.63;;
45252;SDS011;63171;50.520;30.486;2022-11-15T05:03:02;25.40;;;16.45;;
45252;SDS011;63171;50.520;30.486;2022-11-15T05:04:29;23.08;;;16.58;;
45252;SDS011;63171;50.520;30.486;2022-11-15T05:05:41;23.55;;;15.45;;
45252;SDS011;63171;50.520;30.486;2022-11-15T05:06:50;24.70;;;16.42;;
45252;SDS011;63171;50.520;30.486;2022-11-15T05:08:00;21.65;;;16.58;;
45252;SDS011;63171;50.520;30.486;2022-11-15T05:09:09;21.10;;;16.48;;
45252;SDS011;63171;50.520;30.486;2022-11-15T05:10:21;19.23;;;16.38;;
45252;SDS011;63171;50.520;30.486;2022-11-15T05:11:29;23.73;;;17.30;;
45252;SDS011;63171;50.520;30.486;2022-11-15T05:12:39;22.08;;;15.18;;
45252;SDS011;63171;50.520;30.486;2022-11-15T05:13:48;23.20;;;16.65;;
45252;SDS011;63171;50.520;30.486;2022-11-15T05:14:58;25.65;;;16.90;;
45252;SDS011;63171;50.520;30.486;2022-11-15T05:16:07;26.00;;;17.00;;
45252;SDS011;63171;50.520;30.486;2022-11-15T05:17:16;22.30;;;16.52;;
45252;SDS011;63171;50.520;30.486;2022-11-15T05:18:25;28.38;;;18.23;;
45252;SDS011;63171;50.520;30.486;2022-11-15T05:19:35;27.45;;;18.95;;
45252;SDS011;63171;50.520;30.486;2022-11-15T05:20:46;24.52;;;15.60;;
45252;SDS011;63171;50.520;30.486;2022-11-15T05:21:56;23.60;;;17.48;;
45252;SDS011;63171;50.520;30.486;2022-11-15T05:23:05;20.95;;;17.60;;
45252;SDS011;63171;50.520;30.486;2022-11-15T05:24:15;25.92;;;16.42;;
45252;SDS011;63171;50.520;30.486;2022-11-15T05:25:24;23.27;;;16.98;;
45252;SDS011;63171;50.520;30.486;2022-11-15T05:26:34;23.50;;;17.08;;
45252;SDS011;63171;50.520;30.486;2022-11-15T05:27:43;26.88;;;18.05;;
45252;SDS011;63171;50.520;30.486;2022-11-15T05:28:53;21.95;;;16.50;;
45252;SDS011;63171;50.520;30.486;2022-11-15T05:30:02;21.38;;;17.05;;
45252;SDS011;63171;50.520;30.486;2022-11-15T05:31:13;24.65;;;16.67;;
45252;SDS011;63171;50.520;30.486;2022-11-15T05:32:23;20.35;;;16.58;;
45252;SDS011;63171;50.520;30.486;2022-11-15T05:33:33;24.80;;;17.10;;
45252;SDS011;63171;50.520;30.486;2022-11-15T05:34:43;24.60;;;15.60;;
45252;SDS011;63171;50.520;30.486;2022-11-15T05:35:57;20.92;;;14.60;;
45252;SDS011;63171;50.520;30.486;2022-11-15T05:37:09;27.55;;;19.35;;
45252;SDS011;63171;50.520;30.486;2022-11-15T05:38:19;25.52;;;18.33;;
45252;SDS011;63171;50.520;30.486;2022-11-15T05:39:28;21.67;;;16.98;;
45252;SDS011;63171;50.520;30.486;2022-11-15T05:40:38;25.23;;;19.13;;
45252;SDS011;63171;50.520;30.486;2022-11-15T05:41:47;23.45;;;18.45;;
45252;SDS011;63171;50.520;30.486;2022-11-15T05:43:00;26.85;;;19.05;;
45252;SDS011;63171;50.520;30.486;2022-11-15T05:44:12;24.33;;;18.02;;
45252;SDS011;63171;50.520;30.486;2022-11-15T05:45:25;26.40;;;18.90;;
45252;SDS011;63171;50.520;30.486;2022-11-15T05:46:36;25.55;;;18.42;;
45252;SDS011;63171;50.520;30.486;2022-11-15T05:47:47;27.05;;;19.13;;
45252;SDS011;63171;50.520;30.486;2022-11-15T05:48:57;28.08;;;20.35;;
45252;SDS011;63171;50.520;30.486;2022-11-15T05:50:07;31.50;;;19.35;;
45252;SDS011;63171;50.520;30.486;2022-11-15T05:51:23;26.05;;;18.88;;
45252;SDS011;63171;50.520;30.486;2022-11-15T05:53:43;29.00;;;19.52;;
45252;SDS011;63171;50.520;30.486;2022-11-15T05:54:53;28.25;;;19.13;;
45252;SDS011;63171;50.520;30.486;2022-11-15T05:56:04;32.28;;;18.63;;
45252;SDS011;63171;50.520;30.486;2022-11-15T05:57:14;28.83;;;19.95;;
45252;SDS011;63171;50.520;30.486;2022-11-15T05:58:24;27.85;;;18.48;;
45252;SDS011;63171;50.520;30.486;2022-11-15T05:59:33;27.33;;;19.77;;
45252;SDS011;63171;50.520;30.486;2022-11-15T06:00:45;30.63;;;21.23;;
45252;SDS011;63171;50.520;30.486;2022-11-15T06:01:54;31.17;;;20.75;;
45252;SDS011;63171;50.520;30.486;2022-11-15T06:03:04;27.83;;;20.98;;
45252;SDS011;63171;50.520;30.486;2022-11-15T06:04:14;31.55;;;20.40;;
45252;SDS011;63171;50.520;30.486;2022-11-15T06:05:23;32.50;;;23.98;;
45252;SDS011;63171;50.520;30.486;2022-11-15T06:06:34;31.75;;;22.15;;
45252;SDS011;63171;50.520;30.486;2022-11-15T06:07:43;33.97;;;21.40;;
45252;SDS011;63171;50.520;30.486;2022-11-15T06:08:53;33.83;;;22.20;;
45252;SDS011;63171;50.520;30.486;2022-11-15T06:10:03;34.40;;;22.20;;
45252;SDS011;63171;50.520;30.486;2022-11-15T06:11:13;33.00;;;23.45;;
45252;SDS011;63171;50.520;30.486;2022-11-15T06:12:23;37.08;;;23.50;;
45252;SDS011;63171;50.520;30.486;2022-11-15T06:13:32;32.30;;;22.65;;
45252;SDS011;63171;50.520;30.486;2022-11-15T06:14:42;30.88;;;21.75;;
45252;SDS011;63171;50.520;30.486;2022-11-15T06:15:54;36.03;;;22.83;;
45252;SDS011;63171;50.520;30.486;2022-11-15T06:17:03;35.90;;;22.90;;
45252;SDS011;63171;50.520;30.486;2022-11-15T06:18:13;45.15;;;24.60;;
45252;SDS011;63171;50.520;30.486;2022-11-15T06:19:22;32.33;;;23.15;;
45252;SDS011;63171;50.520;30.486;2022-11-15T06:20:32;32.53;;;23.90;;
45252;SDS011;63171;50.520;30.486;2022-11-15T06:21:42;39.15;;;22.77;;
45252;SDS011;63171;50.520;30.486;2022-11-15T06:22:55;31.60;;;22.42;;
45252;SDS011;63171;50.520;30.486;2022-11-15T06:24:05;32.28;;;22.83;;
45252;SDS011;63171;50.520;30.486;2022-11-15T06:26:23;31.38;;;21.75;;
45252;SDS011;63171;50.520;30.486;2022-11-15T06:27:33;33.63;;;22.45;;
45252;SDS011;63171;50.520;30.486;2022-11-15T06:28:42;32.65;;;23.90;;
45252;SDS011;63171;50.520;30.486;2022-11-15T06:29:51;36.83;;;24.23;;
45252;SDS011;63171;50.520;30.486;2022-11-15T06:31:02;35.65;;;22.77;;
45252;SDS011;63171;50.520;30.486;2022-11-15T06:32:12;39.17;;;23.27;;
45252;SDS011;63171;50.520;30.486;2022-11-15T06:33:20;30.63;;;22.67;;
45252;SDS011;63171;50.520;30.486;2022-11-15T06:34:30;32.13;;;22.80;;
45252;SDS011;63171;50.520;30.486;2022-11-15T06:35:39;28.58;;;19.98;;
45252;SDS011;63171;50.520;30.486;2022-11-15T06:36:50;29.63;;;21.20;;
45252;SDS011;63171;50.520;30.486;2022-11-15T06:38:01;34.20;;;22.33;;
45252;SDS011;63171;50.520;30.486;2022-11-15T06:39:11;34.97;;;23.90;;
45252;SDS011;63171;50.520;30.486;2022-11-15T06:40:21;27.45;;;21.25;;
45252;SDS011;63171;50.520;30.486;2022-11-15T06:41:30;36.30;;;24.30;;
45252;SDS011;63171;50.520;30.486;2022-11-15T06:42:42;41.80;;;25.77;;
45252;SDS011;63171;50.520;30.486;2022-11-15T06:43:51;42.58;;;26.42;;
45252;SDS011;63171;50.520;30.486;2022-11-15T06:45:01;40.42;;;24.75;;
45252;SDS011;63171;50.520;30.486;2022-11-15T06:46:10;34.50;;;23.02;;
45252;SDS011;63171;50.520;30.486;2022-11-15T06:47:20;35.95;;;24.20;;
45252;SDS011;63171;50.520;30.486;2022-11-15T06:48:29;31.33;;;22.45;;
45252;SDS011;63171;50.520;30.486;2022-11-15T06:50:50;30.42;;;21.77;;
45252;SDS011;63171;50.520;30.486;2022-11-15T06:52:01;27.55;;;20.65;;
45252;SDS011;63171;50.520;30.486;2022-11-15T06:53:11;30.05;;;19.92;;
45252;SDS011;63171;50.520;30.486;2022-11-15T06:54:20;27.83;;;19.77;;
45252;SDS011;63171;50.520;30.486;2022-11-15T06:55:30;27.52;;;18.70;;
45252;SDS011;63171;50.520;30.486;2022-11-15T06:56:39;29.77;;;19.98;;
45252;SDS011;63171;50.520;30.486;2022-11-15T06:57:49;28.02;;;18.75;;
45252;SDS011;63171;50.520;30.486;2022-11-15T06:58:59;22.13;;;17.30;;
45252;SDS011;63171;50.520;30.486;2022-11-15T07:00:09;24.30;;;17.65;;
45252;SDS011;63171;50.520;30.486;2022-11-15T07:01:19;29.13;;;18.30;;
45252;SDS011;63171;50.520;30.486;2022-11-15T07:02:29;25.60;;;18.02;;
45252;SDS011;63171;50.520;30.486;2022-11-15T07:03:39;25.23;;;16.73;;
45252;SDS011;63171;50.520;30.486;2022-11-15T07:04:50;30.98;;;19.35;;
45252;SDS011;63171;50.520;30.486;2022-11-15T07:05:59;22.17;;;16.13;;
45252;SDS011;63171;50.520;30.486;2022-11-15T07:07:10;21.38;;;15.73;;
45252;SDS011;63171;50.520;30.486;2022-11-15T07:09:28;23.20;;;15.73;;
45252;SDS011;63171;50.520;30.486;2022-11-15T07:10:38;21.73;;;15.38;;
45252;SDS011;63171;50.520;30.486;2022-11-15T07:11:46;21.63;;;17.15;;
45252;SDS011;63171;50.520;30.486;2022-11-15T07:12:56;22.17;;;16.67;;